Time;durP1;ratioP1;P1;durP2;ratioP2;P2;SDS_P1;SDS_P2;PMS_P1;PMS_P2;Temp;Humidity;BMP_temperature;BMP_pressure;BME280_temperature;BME280_humidity;BME280_pressure;Samples;Min_cycle;Max_cycle;Signal;HPM_P1;HPM_P2
2023/10/29 00:01:43;;;;;;;;;;;15.70;99.90;;;;;;7329249;19;109378;-68
2023/10/29 00:04:10;;;;;;;;;;;15.70;99.90;;;;;;7325284;19;109413;-68
2023/10/29 00:06:37;;;;;;;;;;;15.70;99.90;;;;;;7329691;19;109176;-68
2023/10/29 00:09:04;;;;;;;;;;;15.70;99.90;;;;;;7336373;19;108967;-67
2023/10/29 00:11:31;;;;;;;;;;;15.70;99.90;;;;;;7335931;19;110671;-68
2023/10/29 00:13:59;;;;;;;;;;;15.70;99.90;;;;;;7332540;19;109425;-68
2023/10/29 00:16:26;;;;;;;;;;;15.70;99.90;;;;;;7330251;19;109217;-68
2023/10/29 00:18:54;;;;;;;;;;;15.80;99.90;;;;;;7329675;19;109509;-68
2023/10/29 00:21:21;;;;;;;;;;;15.80;99.90;;;;;;7327202;19;109646;-68
2023/10/29 00:23:48;;;;;;;;;;;15.80;99.90;;;;;;7333586;19;108872;-68
2023/10/29 00:26:15;;;;;;;;;;;15.80;99.90;;;;;;7331022;19;109516;-68
2023/10/29 00:28:42;;;;;;;;;;;15.80;99.90;;;;;;7334887;19;109017;-68
2023/10/29 00:31:10;;;;;;;;;;;15.80;99.90;;;;;;7332932;19;109382;-68
2023/10/29 00:33:37;;;;;;;;;;;15.80;99.90;;;;;;7332193;19;113050;-67
2023/10/29 00:36:05;;;;;;;;;;;15.90;99.90;;;;;;7330073;19;108895;-68
2023/10/29 00:38:32;;;;;;;;;;;15.90;99.90;;;;;;7332160;19;110880;-67
2023/10/29 00:40:59;;;;;;;;;;;15.90;99.90;;;;;;7331370;19;108285;-67
2023/10/29 00:43:26;;;;;;;;;;;15.90;99.90;;;;;;7326348;19;108886;-68
2023/10/29 00:45:54;;;;;;;;;;;16.00;99.90;;;;;;7327275;19;109243;-68
2023/10/29 00:48:21;;;;;;;;;;;15.90;99.90;;;;;;7330034;19;108837;-67
2023/10/29 00:50:48;;;;;;;;;;;15.90;99.90;;;;;;7333201;19;108996;-68
2023/10/29 00:53:16;;;;;;;;;;;16.00;99.90;;;;;;7328185;19;108617;-67
2023/10/29 00:55:43;;;;;;;;;;;15.90;99.90;;;;;;7331271;19;111176;-67
2023/10/29 00:58:10;;;;;;;;;;;15.90;99.90;;;;;;7328554;19;111309;-68
2023/10/29 01:00:38;;;;;;;;;;;15.90;99.90;;;;;;7329432;19;109559;-68
2023/10/29 01:03:05;;;;;;;;;;;15.90;99.90;;;;;;7327367;19;109508;-68
2023/10/29 01:05:33;;;;;;;;;;;15.90;99.90;;;;;;7328321;19;109724;-68
2023/10/29 01:08:01;;;;;;;;;;;15.90;99.90;;;;;;7325750;19;112452;-68
2023/10/29 01:10:28;;;;;;;;;;;15.90;99.90;;;;;;7331943;19;109497;-67
2023/10/29 01:12:55;;;;;;;;;;;15.90;99.90;;;;;;7338048;19;110096;-67
2023/10/29 01:15:22;;;;;;;;;;;15.80;99.90;;;;;;7327894;19;108663;-67
2023/10/29 01:17:49;;;;;;;;;;;15.80;99.90;;;;;;7335222;19;109437;-68
2023/10/29 01:20:17;;;;;;;;;;;15.80;99.90;;;;;;7331689;19;110464;-67
2023/10/29 01:22:44;;;;;;;;;;;15.80;99.90;;;;;;7333390;19;110627;-68
2023/10/29 01:25:13;;;;;;;;;;;15.80;99.90;;;;;;7334723;19;110228;-67
2023/10/29 01:27:40;;;;;;;;;;;15.80;99.90;;;;;;7334178;19;108734;-68
2023/10/29 01:30:07;;;;;;;;;;;15.80;99.90;;;;;;7334334;19;110186;-67
2023/10/29 01:32:34;;;;;;;;;;;15.80;99.90;;;;;;7334497;19;109163;-68
2023/10/29 01:35:02;;;;;;;;;;;15.80;99.90;;;;;;7342197;19;109630;-68
2023/10/29 01:37:29;;;;;;;;;;;15.80;99.90;;;;;;7335474;19;110635;-68
2023/10/29 01:39:56;;;;;;;;;;;15.70;99.90;;;;;;7332555;19;109337;-68
2023/10/29 01:42:23;;;;;;;;;;;15.70;99.90;;;;;;7332684;19;109279;-67
2023/10/29 01:44:50;;;;;;;;;;;15.80;99.90;;;;;;7335585;19;109143;-68
2023/10/29 01:47:18;;;;;;;;;;;15.70;99.90;;;;;;7334991;19;109887;-67
2023/10/29 01:49:46;;;;;;;;;;;15.70;99.90;;;;;;7334715;19;109416;-67
2023/10/29 01:52:13;;;;;;;;;;;15.70;99.90;;;;;;7335671;19;108953;-68
2023/10/29 01:54:40;;;;;;;;;;;15.60;99.90;;;;;;7330835;19;111653;-68
2023/10/29 01:57:07;;;;;;;;;;;15.60;99.90;;;;;;7339669;19;111415;-68
2023/10/29 01:59:35;;;;;;;;;;;15.60;99.90;;;;;;7337409;19;108601;-68
2023/10/29 02:02:02;;;;;;;;;;;15.60;99.90;;;;;;7335996;19;113882;-68
2023/10/29 02:04:30;;;;;;;;;;;15.50;99.90;;;;;;7335048;19;110773;-68
2023/10/29 02:06:57;;;;;;;;;;;15.50;99.90;;;;;;7334011;19;110423;-67
2023/10/29 02:09:24;;;;;;;;;;;15.60;99.90;;;;;;7330564;19;110277;-68
2023/10/29 02:11:51;;;;;;;;;;;15.50;99.90;;;;;;7333881;19;111298;-68
2023/10/29 02:14:18;;;;;;;;;;;15.50;99.90;;;;;;7333393;19;110092;-67
2023/10/29 02:16:46;;;;;;;;;;;15.50;99.90;;;;;;7332682;19;109356;-68
2023/10/29 02:19:13;;;;;;;;;;;15.60;99.90;;;;;;7340614;19;110128;-67
2023/10/29 02:21:40;;;;;;;;;;;15.60;99.90;;;;;;7329026;19;108970;-67
2023/10/29 02:24:08;;;;;;;;;;;15.60;99.90;;;;;;7333702;19;110164;-68
2023/10/29 02:26:35;;;;;;;;;;;15.60;99.90;;;;;;7331170;19;109970;-68
2023/10/29 02:29:02;;;;;;;;;;;15.60;99.90;;;;;;7334451;19;114962;-69
2023/10/29 02:31:29;;;;;;;;;;;15.60;99.90;;;;;;7333341;19;109751;-67
2023/10/29 02:33:56;;;;;;;;;;;15.60;99.90;;;;;;7336196;19;109092;-68
2023/10/29 02:36:23;;;;;;;;;;;15.60;99.90;;;;;;7336621;19;109549;-67
2023/10/29 02:38:50;;;;;;;;;;;15.60;99.90;;;;;;7334103;19;109100;-67
2023/10/29 02:41:17;;;;;;;;;;;15.70;99.90;;;;;;7340527;19;110795;-67
2023/10/29 02:43:44;;;;;;;;;;;15.70;99.90;;;;;;7329542;19;110478;-67
2023/10/29 02:46:12;;;;;;;;;;;15.70;99.90;;;;;;7332327;19;108539;-69
2023/10/29 02:48:39;;;;;;;;;;;15.70;99.90;;;;;;7331469;19;109936;-67
2023/10/29 02:51:10;;;;;;;;;;;15.70;99.90;;;;;;7331124;19;110137;-69
2023/10/29 02:53:37;;;;;;;;;;;15.70;99.90;;;;;;7334253;19;108770;-68
2023/10/29 02:56:04;;;;;;;;;;;15.70;99.90;;;;;;7332592;19;109506;-68
2023/10/29 02:58:31;;;;;;;;;;;15.70;99.90;;;;;;7331738;19;109475;-67
2023/10/29 03:01:05;;;;;;;;;;;15.70;99.90;;;;;;7339063;19;109361;-68
2023/10/29 03:03:33;;;;;;;;;;;15.70;99.90;;;;;;7332717;19;111367;-68
2023/10/29 03:06:04;;;;;;;;;;;15.80;99.90;;;;;;7331934;19;109532;-68
2023/10/29 03:08:32;;;;;;;;;;;15.80;99.90;;;;;;7331902;19;108385;-68
2023/10/29 03:10:59;;;;;;;;;;;15.80;99.90;;;;;;7332942;19;110072;-68
2023/10/29 03:13:26;;;;;;;;;;;15.70;99.90;;;;;;7335379;19;109299;-67
2023/10/29 03:15:54;;;;;;;;;;;15.70;99.90;;;;;;7333955;19;108935;-68
2023/10/29 03:18:22;;;;;;;;;;;15.70;99.90;;;;;;7332867;19;109803;-67
2023/10/29 03:20:49;;;;;;;;;;;15.70;99.90;;;;;;7330214;19;108589;-68
2023/10/29 03:23:16;;;;;;;;;;;15.70;99.90;;;;;;7337623;19;109498;-67
2023/10/29 03:25:47;;;;;;;;;;;15.70;99.90;;;;;;7330935;19;108836;-68
2023/10/29 03:28:14;;;;;;;;;;;15.70;99.90;;;;;;7332270;19;108548;-71
2023/10/29 03:30:41;;;;;;;;;;;15.70;99.90;;;;;;7333331;19;110130;-71
2023/10/29 03:33:08;;;;;;;;;;;15.70;99.90;;;;;;7328588;19;108935;-68
2023/10/29 03:35:35;;;;;;;;;;;15.70;99.90;;;;;;7332357;19;109065;-68
2023/10/29 03:38:03;;;;;;;;;;;15.70;99.90;;;;;;7332873;19;110699;-68
2023/10/29 03:40:30;;;;;;;;;;;15.70;99.90;;;;;;7333433;19;108544;-68
2023/10/29 03:42:57;;;;;;;;;;;15.70;99.90;;;;;;7334953;19;108757;-68
2023/10/29 03:45:24;;;;;;;;;;;15.70;99.90;;;;;;7334659;19;109198;-68
2023/10/29 03:47:51;;;;;;;;;;;15.70;99.90;;;;;;7332832;19;109924;-68
2023/10/29 03:50:18;;;;;;;;;;;15.70;99.90;;;;;;7328657;19;109850;-68
2023/10/29 03:52:45;;;;;;;;;;;15.70;99.90;;;;;;7330497;19;110937;-71
2023/10/29 03:55:12;;;;;;;;;;;15.70;99.90;;;;;;7329181;19;109078;-68
2023/10/29 03:57:39;;;;;;;;;;;15.70;99.90;;;;;;7333267;19;109446;-68
2023/10/29 04:00:07;;;;;;;;;;;15.70;99.90;;;;;;7331876;19;108689;-68
2023/10/29 04:02:34;;;;;;;;;;;15.70;99.90;;;;;;7333440;19;109660;-69
2023/10/29 04:05:02;;;;;;;;;;;15.70;99.90;;;;;;7328721;19;109227;-68
2023/10/29 04:07:36;;;;;;;;;;;15.70;99.90;;;;;;7333371;19;110304;-68
2023/10/29 04:10:04;;;;;;;;;;;15.70;99.90;;;;;;7329614;19;109171;-68
2023/10/29 04:12:32;;;;;;;;;;;15.70;99.90;;;;;;7330026;19;110932;-68
2023/10/29 04:14:59;;;;;;;;;;;15.70;99.90;;;;;;7333040;19;109416;-68
2023/10/29 04:17:26;;;;;;;;;;;15.70;99.90;;;;;;7330169;19;109734;-69
2023/10/29 04:19:54;;;;;;;;;;;15.70;99.90;;;;;;7332902;19;108930;-68
2023/10/29 04:22:22;;;;;;;;;;;15.70;99.90;;;;;;7330243;19;109501;-67
2023/10/29 04:24:50;;;;;;;;;;;15.70;99.90;;;;;;7330776;19;109127;-67
2023/10/29 04:27:17;;;;;;;;;;;15.70;99.90;;;;;;7327389;19;110174;-66
2023/10/29 04:29:44;;;;;;;;;;;15.60;99.90;;;;;;7338803;19;108962;-67
2023/10/29 04:32:12;;;;;;;;;;;15.60;99.90;;;;;;7329466;19;110236;-67
2023/10/29 04:34:39;;;;;;;;;;;15.50;99.90;;;;;;7331280;19;108414;-67
2023/10/29 04:37:06;;;;;;;;;;;15.50;99.90;;;;;;7329210;19;109458;-66
2023/10/29 04:39:33;;;;;;;;;;;15.50;99.90;;;;;;7332779;19;109968;-68
2023/10/29 04:42:01;;;;;;;;;;;15.50;99.90;;;;;;7329686;19;108478;-68
2023/10/29 04:44:28;;;;;;;;;;;15.40;99.90;;;;;;7332927;19;109676;-68
2023/10/29 04:46:56;;;;;;;;;;;15.40;99.90;;;;;;7328396;19;110963;-67
2023/10/29 04:49:24;;;;;;;;;;;15.40;99.90;;;;;;7328838;19;108775;-67
2023/10/29 04:51:51;;;;;;;;;;;15.40;99.90;;;;;;7340577;19;110588;-68
2023/10/29 04:54:18;;;;;;;;;;;15.40;99.90;;;;;;7334075;19;110629;-70
2023/10/29 04:56:45;;;;;;;;;;;15.40;99.90;;;;;;7335788;19;109151;-68
2023/10/29 04:59:13;;;;;;;;;;;15.40;99.90;;;;;;7335264;19;109962;-68
2023/10/29 05:01:40;;;;;;;;;;;15.40;99.90;;;;;;7335400;19;108726;-68
2023/10/29 05:04:07;;;;;;;;;;;15.40;99.90;;;;;;7336946;19;109916;-68
2023/10/29 05:06:34;;;;;;;;;;;15.30;99.90;;;;;;7335798;19;108663;-68
2023/10/29 05:09:02;;;;;;;;;;;15.30;99.90;;;;;;7337443;19;110332;-69
2023/10/29 05:11:31;;;;;;;;;;;15.30;99.90;;;;;;7338692;19;109988;-67
2023/10/29 05:13:58;;;;;;;;;;;15.30;99.90;;;;;;7334244;19;110572;-67
2023/10/29 05:16:25;;;;;;;;;;;15.20;99.90;;;;;;7336742;19;111287;-67
2023/10/29 05:18:53;;;;;;;;;;;15.20;99.90;;;;;;7335607;19;111045;-67
2023/10/29 05:21:20;;;;;;;;;;;15.20;99.90;;;;;;7333482;19;109141;-67
2023/10/29 05:23:47;;;;;;;;;;;15.20;99.90;;;;;;7337619;19;109979;-67
2023/10/29 05:26:14;;;;;;;;;;;15.10;99.90;;;;;;7333405;19;110261;-67
2023/10/29 05:28:42;;;;;;;;;;;15.10;99.90;;;;;;7335996;19;109696;-67
2023/10/29 05:31:09;;;;;;;;;;;15.10;99.90;;;;;;7330672;19;110889;-68
2023/10/29 05:33:37;;;;;;;;;;;15.10;99.90;;;;;;7341259;19;111164;-67
2023/10/29 05:36:04;;;;;;;;;;;15.10;99.90;;;;;;7334525;19;109247;-67
2023/10/29 05:38:32;;;;;;;;;;;15.00;99.90;;;;;;7334579;19;111844;-68
2023/10/29 05:40:59;;;;;;;;;;;15.10;99.90;;;;;;7336738;19;109677;-68
2023/10/29 05:43:26;;;;;;;;;;;14.90;99.90;;;;;;7332794;19;109769;-68
2023/10/29 05:45:54;;;;;;;;;;;14.90;99.90;;;;;;7337918;19;109056;-68
2023/10/29 05:48:21;;;;;;;;;;;14.90;99.90;;;;;;7331242;19;110773;-67
2023/10/29 05:50:49;;;;;;;;;;;14.90;99.90;;;;;;7336137;19;110120;-68
2023/10/29 05:53:16;;;;;;;;;;;14.90;99.90;;;;;;7335934;19;110397;-68
2023/10/29 05:55:43;;;;;;;;;;;14.90;99.90;;;;;;7339407;19;109986;-68
2023/10/29 05:58:10;;;;;;;;;;;14.90;99.90;;;;;;7334522;19;109975;-67
2023/10/29 06:00:37;;;;;;;;;;;14.90;99.90;;;;;;7335959;19;108843;-67
2023/10/29 06:03:05;;;;;;;;;;;14.80;99.90;;;;;;7332588;19;109467;-69
2023/10/29 06:05:32;;;;;;;;;;;14.80;99.90;;;;;;7333767;19;110765;-76
2023/10/29 06:07:59;;;;;;;;;;;14.80;99.90;;;;;;7333348;19;108356;-76
2023/10/29 06:10:26;;;;;;;;;;;14.80;99.90;;;;;;7332859;19;110190;-72
2023/10/29 06:12:53;;;;;;;;;;;14.80;99.90;;;;;;7336042;19;108782;-76
2023/10/29 06:15:21;;;;;;;;;;;14.70;99.90;;;;;;7330911;19;109046;-68
2023/10/29 06:17:48;;;;;;;;;;;14.70;99.90;;;;;;7345464;19;109824;-69
2023/10/29 06:20:20;;;;;;;;;;;14.70;99.90;;;;;;7344370;19;108947;-86
2023/10/29 06:25:34;;;;;;;;;;;14.70;99.90;;;;;;7357920;19;109006;-87
2023/10/29 06:28:02;;;;;;;;;;;14.70;99.90;;;;;;7338540;19;108847;-87
2023/10/29 06:30:29;;;;;;;;;;;14.60;99.90;;;;;;7335726;19;110608;-88
2023/10/29 06:32:58;;;;;;;;;;;14.60;99.90;;;;;;7335048;19;110614;-88
2023/10/29 06:35:26;;;;;;;;;;;14.60;99.90;;;;;;7340390;19;109449;-87
2023/10/29 06:37:53;;;;;;;;;;;14.60;99.90;;;;;;7337598;19;110096;-87
2023/10/29 06:40:21;;;;;;;;;;;14.60;99.90;;;;;;7335276;19;109968;-87
2023/10/29 06:42:48;;;;;;;;;;;14.60;99.90;;;;;;7331510;19;109670;-87
2023/10/29 06:45:16;;;;;;;;;;;14.60;99.90;;;;;;7325595;19;110140;-87
2023/10/29 06:47:44;;;;;;;;;;;14.50;99.90;;;;;;7330670;19;110505;-87
2023/10/29 06:50:11;;;;;;;;;;;14.50;99.90;;;;;;7330876;19;109852;-87
2023/10/29 06:52:38;;;;;;;;;;;14.50;99.90;;;;;;7336016;19;109246;-87
2023/10/29 06:55:08;;;;;;;;;;;14.50;99.90;;;;;;7329266;19;112929;-87
2023/10/29 06:57:37;;;;;;;;;;;14.50;99.90;;;;;;7328357;19;114165;-86
2023/10/29 07:00:04;;;;;;;;;;;14.50;99.90;;;;;;7327337;19;111128;-86
2023/10/29 07:02:32;;;;;;;;;;;14.50;99.90;;;;;;7334486;19;108747;-87
2023/10/29 07:04:59;;;;;;;;;;;14.50;99.90;;;;;;7329319;19;109390;-86
2023/10/29 07:07:28;;;;;;;;;;;14.50;99.90;;;;;;7330132;19;108378;-87
2023/10/29 07:09:56;;;;;;;;;;;14.50;99.90;;;;;;7324513;19;113504;-86
2023/10/29 07:12:23;;;;;;;;;;;14.50;99.90;;;;;;7329320;19;109079;-87
2023/10/29 07:14:50;;;;;;;;;;;14.50;99.90;;;;;;7330175;19;112298;-87
2023/10/29 07:17:17;;;;;;;;;;;14.60;99.90;;;;;;7327110;19;109766;-86
2023/10/29 07:19:45;;;;;;;;;;;14.50;99.90;;;;;;7328905;19;110504;-87
2023/10/29 07:22:12;;;;;;;;;;;14.60;99.90;;;;;;7331872;19;116303;-87
2023/10/29 07:24:39;;;;;;;;;;;14.60;99.90;;;;;;7328978;19;108865;-86
2023/10/29 07:27:06;;;;;;;;;;;14.60;99.90;;;;;;7324691;19;112046;-87
2023/10/29 07:29:33;;;;;;;;;;;14.60;99.90;;;;;;7329037;19;110451;-88
2023/10/29 07:32:00;;;;;;;;;;;14.60;99.90;;;;;;7327721;19;109244;-87
2023/10/29 07:34:27;;;;;;;;;;;14.60;99.90;;;;;;7325619;19;109633;-87
2023/10/29 07:36:58;;;;;;;;;;;14.60;99.90;;;;;;7326098;19;110993;-87
2023/10/29 07:39:25;;;;;;;;;;;14.70;99.90;;;;;;7328604;19;109016;-86
2023/10/29 07:41:52;;;;;;;;;;;14.70;99.90;;;;;;7321155;19;112600;-87
2023/10/29 07:44:22;;;;;;;;;;;14.70;99.90;;;;;;7329471;19;110187;-86
2023/10/29 07:46:50;;;;;;;;;;;14.70;99.90;;;;;;7319739;19;110239;-87
2023/10/29 07:49:17;;;;;;;;;;;14.70;99.90;;;;;;7323866;19;114495;-88
2023/10/29 07:51:44;;;;;;;;;;;14.70;99.90;;;;;;7326452;19;108796;-89
2023/10/29 07:54:16;;;;;;;;;;;14.70;99.90;;;;;;7323563;19;121252;-86
2023/10/29 07:56:43;;;;;;;;;;;14.70;99.90;;;;;;7324136;19;109900;-86
2023/10/29 07:59:10;;;;;;;;;;;14.80;99.90;;;;;;7324831;19;108665;-87
2023/10/29 08:01:37;;;;;;;;;;;14.80;99.90;;;;;;7328891;19;109711;-87
2023/10/29 08:04:05;;;;;;;;;;;14.80;99.90;;;;;;7319783;19;109640;-87
2023/10/29 08:06:32;;;;;;;;;;;14.90;99.90;;;;;;7332633;19;109143;-87
2023/10/29 08:08:59;;;;;;;;;;;14.90;99.90;;;;;;7319586;19;110176;-85
2023/10/29 08:11:26;;;;;;;;;;;14.90;99.90;;;;;;7320985;19;109243;-87
2023/10/29 08:13:53;;;;;;;;;;;15.00;99.90;;;;;;7322942;19;109480;-86
2023/10/29 08:16:21;;;;;;;;;;;15.00;99.90;;;;;;7323110;19;110529;-88
2023/10/29 08:18:48;;;;;;;;;;;15.10;99.90;;;;;;7331678;19;108658;-87
2023/10/29 08:21:15;;;;;;;;;;;15.10;99.90;;;;;;7329362;19;109588;-88
2023/10/29 08:23:42;;;;;;;;;;;15.10;99.90;;;;;;7324591;19;111504;-88
2023/10/29 08:26:09;;;;;;;;;;;15.10;99.90;;;;;;7322321;19;109107;-87
2023/10/29 08:28:36;;;;;;;;;;;15.10;99.90;;;;;;7328619;19;109540;-86
2023/10/29 08:31:04;;;;;;;;;;;15.20;99.90;;;;;;7326228;19;108504;-85
2023/10/29 08:33:31;;;;;;;;;;;15.30;99.90;;;;;;7325249;19;108804;-87
2023/10/29 08:35:59;;;;;;;;;;;15.30;99.90;;;;;;7318722;19;112784;-87
2023/10/29 08:38:26;;;;;;;;;;;15.30;99.90;;;;;;7322214;19;110497;-87
2023/10/29 08:40:53;;;;;;;;;;;15.40;99.90;;;;;;7320384;19;110206;-87
2023/10/29 08:43:20;;;;;;;;;;;15.50;99.90;;;;;;7320871;19;113978;-86
2023/10/29 08:45:47;;;;;;;;;;;15.50;99.90;;;;;;7317869;19;111546;-86
2023/10/29 08:48:21;;;;;;;;;;;15.60;99.90;;;;;;7318393;19;109805;-86
2023/10/29 08:50:48;;;;;;;;;;;15.60;99.90;;;;;;7327114;19;110559;-88
2023/10/29 08:53:15;;;;;;;;;;;15.60;99.90;;;;;;7319565;19;111028;-88
2023/10/29 08:55:43;;;;;;;;;;;15.60;99.90;;;;;;7328759;19;109495;-88
2023/10/29 08:58:11;;;;;;;;;;;15.60;99.90;;;;;;7326631;19;109233;-88
2023/10/29 09:00:40;;;;;;;;;;;15.60;99.90;;;;;;7326690;19;109541;-88
2023/10/29 09:03:16;;;;;;;;;;;15.60;99.90;;;;;;7324196;19;110711;-87
2023/10/29 09:05:43;;;;;;;;;;;15.70;99.90;;;;;;7325449;19;108343;-87
2023/10/29 09:08:11;;;;;;;;;;;15.70;99.90;;;;;;7321633;19;111469;-87
2023/10/29 09:10:42;;;;;;;;;;;15.70;99.90;;;;;;7329557;19;110847;-89
2023/10/29 09:13:24;;;;;;;;;;;15.70;99.90;;;;;;7337936;19;109088;-88
2023/10/29 09:15:51;;;;;;;;;;;15.70;99.90;;;;;;7334519;19;110294;-89
2023/10/29 09:18:18;;;;;;;;;;;15.80;99.90;;;;;;7331472;19;109954;-90
2023/10/29 09:20:46;;;;;;;;;;;15.80;99.90;;;;;;7331939;19;109477;-91
2023/10/29 09:23:14;;;;;;;;;;;15.80;99.90;;;;;;7331004;19;109535;-91
2023/10/29 09:25:45;;;;;;;;;;;15.80;99.90;;;;;;7328629;19;108920;-88
2023/10/29 09:28:13;;;;;;;;;;;15.80;99.90;;;;;;7324863;19;109290;-86
2023/10/29 09:30:44;;;;;;;;;;;15.80;99.90;;;;;;7330694;19;109162;-89
2023/10/29 09:33:13;;;;;;;;;;;15.90;99.90;;;;;;7338988;19;109377;-87
2023/10/29 09:35:40;;;;;;;;;;;15.90;99.90;;;;;;7325795;19;110558;-89
2023/10/29 09:38:10;;;;;;;;;;;15.90;99.90;;;;;;7335783;19;108871;-88
2023/10/29 09:40:37;;;;;;;;;;;15.80;99.90;;;;;;7333533;19;108938;-88
2023/10/29 09:43:07;;;;;;;;;;;15.80;99.90;;;;;;7330843;19;110933;-90
2023/10/29 09:45:37;;;;;;;;;;;15.80;99.90;;;;;;7328110;19;111077;-91
2023/10/29 09:48:07;;;;;;;;;;;15.90;99.90;;;;;;7336332;19;109808;-90
2023/10/29 09:50:34;;;;;;;;;;;15.80;99.90;;;;;;7337459;19;109556;-89
2023/10/29 09:53:05;;;;;;;;;;;15.90;99.90;;;;;;7338981;19;108625;-89
2023/10/29 09:55:33;;;;;;;;;;;15.90;99.90;;;;;;7346985;19;108855;-87
2023/10/29 09:58:02;;;;;;;;;;;15.90;99.90;;;;;;7332766;19;109064;-88
2023/10/29 10:00:31;;;;;;;;;;;15.90;99.90;;;;;;7340626;19;109381;-87
2023/10/29 10:02:59;;;;;;;;;;;15.90;99.90;;;;;;7331167;19;110699;-87
2023/10/29 10:05:30;;;;;;;;;;;15.90;99.90;;;;;;7319567;19;109543;-89
2023/10/29 10:07:58;;;;;;;;;;;15.90;99.90;;;;;;7332242;19;109821;-90
2023/10/29 10:10:55;;;;;;;;;;;15.90;99.90;;;;;;7332828;19;111444;-90
2023/10/29 10:13:38;;;;;;;;;;;15.90;99.90;;;;;;7329835;19;109197;-88
2023/10/29 10:16:06;;;;;;;;;;;16.00;99.90;;;;;;7333933;19;109347;-88
2023/10/29 10:18:48;;;;;;;;;;;16.10;99.90;;;;;;7338560;19;110388;-87
2023/10/29 10:21:16;;;;;;;;;;;16.20;99.90;;;;;;7336195;19;108846;-90
2023/10/29 10:23:50;;;;;;;;;;;16.20;99.90;;;;;;7333789;19;112822;-87
2023/10/29 10:34:37;;;;;;;;;;;16.30;99.90;;;;;;7328204;19;108775;-73
2023/10/29 10:37:05;;;;;;;;;;;16.20;99.90;;;;;;7333300;19;108795;-75
2023/10/29 10:39:33;;;;;;;;;;;16.20;99.90;;;;;;7332916;19;109248;-73
2023/10/29 10:42:02;;;;;;;;;;;16.20;99.90;;;;;;7340007;19;109368;-73
2023/10/29 10:44:30;;;;;;;;;;;16.10;99.90;;;;;;7330731;19;110294;-74
2023/10/29 10:46:58;;;;;;;;;;;16.10;99.90;;;;;;7331817;19;109597;-74
2023/10/29 10:49:26;;;;;;;;;;;16.10;99.90;;;;;;7332516;19;108658;-75
2023/10/29 10:51:55;;;;;;;;;;;16.10;99.90;;;;;;7333111;19;109548;-74
2023/10/29 10:54:22;;;;;;;;;;;16.10;99.90;;;;;;7334826;19;108886;-74
2023/10/29 10:56:51;;;;;;;;;;;16.00;99.90;;;;;;7335151;19;110925;-74
2023/10/29 10:59:19;;;;;;;;;;;16.00;99.90;;;;;;7335802;19;110170;-73
2023/10/29 11:01:48;;;;;;;;;;;16.00;99.90;;;;;;7334031;19;108525;-74
2023/10/29 11:04:15;;;;;;;;;;;16.00;99.90;;;;;;7338588;19;110757;-73
2023/10/29 11:06:43;;;;;;;;;;;16.10;99.90;;;;;;7324222;19;108659;-72
2023/10/29 11:09:12;;;;;;;;;;;16.10;99.90;;;;;;7333465;19;108846;-73
2023/10/29 11:11:43;;;;;;;;;;;16.10;99.90;;;;;;7326771;19;110157;-73
2023/10/29 11:14:11;;;;;;;;;;;16.00;99.90;;;;;;7331800;19;109557;-72
2023/10/29 11:16:45;;;;;;;;;;;16.10;99.90;;;;;;7330452;19;108730;-73
2023/10/29 11:19:31;;;;;;;;;;;16.10;99.90;;;;;;7325494;19;110032;-73
2023/10/29 11:22:31;;;;;;;;;;;16.10;99.90;;;;;;7330900;19;110313;-73
2023/10/29 11:25:19;;;;;;;;;;;16.20;99.90;;;;;;7336933;19;111560;-72
2023/10/29 11:27:47;;;;;;;;;;;16.30;99.90;;;;;;7331198;19;109548;-74
2023/10/29 11:30:16;;;;;;;;;;;16.30;99.90;;;;;;7334097;19;108752;-73
2023/10/29 11:32:44;;;;;;;;;;;16.40;99.90;;;;;;7335429;19;109237;-74
2023/10/29 11:35:14;;;;;;;;;;;16.50;99.90;;;;;;7335563;19;108485;-75
2023/10/29 11:37:42;;;;;;;;;;;16.50;99.90;;;;;;7335930;19;109378;-74
2023/10/29 11:40:36;;;;;;;;;;;16.60;99.90;;;;;;7330926;19;109228;-72
2023/10/29 11:43:22;;;;;;;;;;;16.70;99.90;;;;;;7335876;19;109641;-73
2023/10/29 11:45:59;;;;;;;;;;;16.70;99.90;;;;;;7334703;19;108893;-72
2023/10/29 11:48:29;;;;;;;;;;;16.80;99.90;;;;;;7335218;19;113565;-80
2023/10/29 11:51:05;;;;;;;;;;;16.80;99.90;;;;;;7334335;19;109533;-75
2023/10/29 11:53:33;;;;;;;;;;;16.90;99.90;;;;;;7335204;19;109444;-79
2023/10/29 11:56:04;;;;;;;;;;;16.90;99.90;;;;;;7329614;19;109294;-79
2023/10/29 11:58:31;;;;;;;;;;;16.90;99.90;;;;;;7330965;19;109391;-76
2023/10/29 12:00:59;;;;;;;;;;;16.90;99.90;;;;;;7332332;19;109775;-74
2023/10/29 12:03:26;;;;;;;;;;;16.90;99.90;;;;;;7330286;19;110197;-79
2023/10/29 12:05:55;;;;;;;;;;;16.90;99.90;;;;;;7328927;19;109220;-68
2023/10/29 12:08:23;;;;;;;;;;;16.90;99.90;;;;;;7329777;19;112403;-75
2023/10/29 12:10:51;;;;;;;;;;;16.90;99.90;;;;;;7334056;19;109805;-69
2023/10/29 12:13:19;;;;;;;;;;;16.80;99.90;;;;;;7331224;19;110339;-69
2023/10/29 12:16:01;;;;;;;;;;;16.80;99.90;;;;;;7327724;19;108889;-69
2023/10/29 12:18:29;;;;;;;;;;;16.80;99.90;;;;;;7329979;19;109118;-69
2023/10/29 12:21:06;;;;;;;;;;;16.80;99.90;;;;;;7331773;19;109094;-72
2023/10/29 12:23:35;;;;;;;;;;;16.80;99.90;;;;;;7329897;19;109200;-71
2023/10/29 12:26:04;;;;;;;;;;;16.90;99.90;;;;;;7331026;19;109567;-70
2023/10/29 12:28:32;;;;;;;;;;;16.90;99.90;;;;;;7332588;19;109151;-74
2023/10/29 12:30:59;;;;;;;;;;;16.90;99.90;;;;;;7331049;19;109066;-76
2023/10/29 12:33:27;;;;;;;;;;;16.90;99.90;;;;;;7338414;19;109216;-76
2023/10/29 12:35:56;;;;;;;;;;;16.90;99.90;;;;;;7332266;19;108925;-71
2023/10/29 12:38:23;;;;;;;;;;;16.90;99.90;;;;;;7333507;19;108928;-72
2023/10/29 12:41:27;;;;;;;;;;;17.00;99.90;;;;;;7330473;19;110265;-76
2023/10/29 12:43:54;;;;;;;;;;;17.00;99.90;;;;;;7329892;19;108659;-75
2023/10/29 12:46:22;;;;;;;;;;;17.00;99.90;;;;;;7332957;19;108929;-69
2023/10/29 12:48:59;;;;;;;;;;;17.00;99.90;;;;;;7349400;19;109793;-87
2023/10/29 12:51:26;;;;;;;;;;;16.90;99.90;;;;;;7372754;19;108276;-88
2023/10/29 12:54:14;;;;;;;;;;;16.90;99.90;;;;;;7372155;19;108027;-87
2023/10/29 12:56:47;;;;;;;;;;;16.80;99.90;;;;;;7375290;19;109343;-88
2023/10/29 12:59:15;;;;;;;;;;;16.70;99.90;;;;;;7368937;19;107812;-87
2023/10/29 13:01:52;;;;;;;;;;;16.70;99.90;;;;;;7362504;19;109342;-87
2023/10/29 13:04:25;;;;;;;;;;;16.70;99.90;;;;;;7339311;19;108730;-86
2023/10/29 13:06:53;;;;;;;;;;;16.60;99.90;;;;;;7341436;19;109559;-87
2023/10/29 13:09:22;;;;;;;;;;;16.60;99.90;;;;;;7341047;19;110566;-87
2023/10/29 13:11:52;;;;;;;;;;;16.60;99.90;;;;;;7329603;19;111284;-68
2023/10/29 13:14:19;;;;;;;;;;;16.50;99.90;;;;;;7335627;19;109628;-68
2023/10/29 13:16:47;;;;;;;;;;;16.40;99.90;;;;;;7336433;19;109280;-68
2023/10/29 13:19:14;;;;;;;;;;;16.40;99.90;;;;;;7341479;19;108924;-68
2023/10/29 13:21:41;;;;;;;;;;;16.30;99.90;;;;;;7334803;19;109230;-68
2023/10/29 13:24:09;;;;;;;;;;;16.20;99.90;;;;;;7337705;19;108688;-68
2023/10/29 13:26:37;;;;;;;;;;;16.20;99.90;;;;;;7337355;19;109395;-68
2023/10/29 13:29:04;;;;;;;;;;;16.10;99.90;;;;;;7335364;19;109137;-68
2023/10/29 13:31:32;;;;;;;;;;;16.10;99.90;;;;;;7340099;19;109097;-68
2023/10/29 13:33:59;;;;;;;;;;;16.00;99.90;;;;;;7337654;19;110454;-68
2023/10/29 13:36:28;;;;;;;;;;;16.00;99.90;;;;;;7338020;19;109240;-68
2023/10/29 13:38:55;;;;;;;;;;;15.90;99.90;;;;;;7346260;19;108365;-68
2023/10/29 13:41:23;;;;;;;;;;;15.80;99.90;;;;;;7341196;19;109417;-68
2023/10/29 13:43:50;;;;;;;;;;;15.80;99.90;;;;;;7338241;19;108961;-68
2023/10/29 13:46:17;;;;;;;;;;;15.70;99.90;;;;;;7337050;19;109385;-68
2023/10/29 13:48:45;;;;;;;;;;;15.70;99.90;;;;;;7331229;19;109668;-78
2023/10/29 13:51:13;;;;;;;;;;;15.70;99.90;;;;;;7331268;19;108995;-78
2023/10/29 13:53:59;;;;;;;;;;;15.80;99.90;;;;;;7336955;19;112638;-87
2023/10/29 13:56:27;;;;;;;;;;;15.90;99.90;;;;;;7335994;19;109952;-90
2023/10/29 14:02:02;;;;;;;;;;;15.90;99.90;;;;;;7332469;19;110885;-76
2023/10/29 14:04:30;;;;;;;;;;;16.00;99.90;;;;;;7341112;19;108644;-76
2023/10/29 14:06:57;;;;;;;;;;;16.00;99.90;;;;;;7337588;19;109085;-76
2023/10/29 14:09:38;;;;;;;;;;;16.10;99.90;;;;;;7330672;19;112121;-76
2023/10/29 14:12:05;;;;;;;;;;;16.20;99.90;;;;;;7337635;19;108446;-74
2023/10/29 14:14:32;;;;;;;;;;;16.20;99.90;;;;;;7335332;19;112655;-74
2023/10/29 14:17:04;;;;;;;;;;;16.40;99.90;;;;;;7335610;19;109233;-73
2023/10/29 14:19:31;;;;;;;;;;;16.50;99.90;;;;;;7334891;19;109161;-74
2023/10/29 14:21:58;;;;;;;;;;;16.70;99.90;;;;;;7335703;19;110742;-75
2023/10/29 14:24:26;;;;;;;;;;;16.80;99.90;;;;;;7332912;19;113211;-74
2023/10/29 14:26:55;;;;;;;;;;;17.00;99.90;;;;;;7334759;19;108857;-74